createdAt,value
2022-08-09T01:08:06.321Z,19.51
2022-08-09T01:13:31.142Z,19.43
2022-08-09T01:18:47.695Z,19.34
2022-08-09T01:24:10.643Z,19.36
2022-08-09T01:29:15.329Z,19.46
2022-08-09T01:34:21.504Z,19.44
2022-08-09T01:39:28.422Z,19.48
2022-08-09T01:44:33.421Z,19.45
2022-08-09T01:49:39.106Z,19.42
2022-08-09T01:54:52.719Z,19.37
2022-08-09T02:00:08.828Z,19.34
2022-08-09T02:05:38.096Z,19.21
2022-08-09T02:10:50.689Z,19.11
2022-08-09T17:27:49.149Z,26.26
2022-08-09T17:33:01.006Z,26.18
2022-08-09T17:38:13.745Z,26.02
2022-08-09T17:43:34.588Z,25.75
2022-08-09T17:48:51.935Z,25.55
2022-08-09T17:53:55.911Z,25.43
2022-08-09T17:59:03.395Z,25.22
2022-08-09T18:04:11.973Z,25.05
2022-08-09T18:09:16.209Z,24.83
2022-08-09T18:14:19.469Z,24.65
2022-08-09T18:20:55.623Z,24.48
2022-08-09T18:24:46.357Z,24.20
2022-08-09T18:30:35.443Z,24.15
2022-08-09T18:35:11.321Z,23.94
2022-08-09T18:40:13.931Z,23.86
2022-08-09T18:45:21.759Z,23.69
2022-08-09T18:50:43.145Z,23.50
2022-08-09T18:55:57.058Z,23.29
2022-08-09T19:01:07.821Z,23.26
2022-08-09T19:06:14.535Z,23.10
2022-08-09T19:11:17.189Z,22.98
2022-08-09T19:16:23.658Z,22.91
2022-08-09T19:21:51.863Z,22.71
2022-08-09T19:26:54.842Z,22.64
2022-08-09T19:31:59.853Z,22.46
2022-08-09T19:37:03.062Z,22.39
2022-08-09T19:42:05.738Z,22.30
2022-08-09T19:47:11.281Z,22.18
2022-08-09T19:52:13.731Z,22.13
2022-08-09T19:57:16.499Z,21.97
2022-08-09T20:04:23.809Z,21.77
2022-08-09T20:07:59.323Z,21.55
2022-08-09T20:13:04.814Z,21.58
2022-08-09T20:18:08.389Z,21.44
2022-08-09T20:23:12.393Z,21.33
2022-08-09T20:28:28.116Z,21.30
2022-08-09T20:33:41.126Z,21.19
2022-08-09T20:39:29.192Z,21.11
2022-08-09T20:44:10.102Z,21.11
2022-08-09T20:49:14.156Z,21.06
2022-08-09T20:54:18.763Z,21.01
2022-08-09T21:00:20.025Z,20.82
2022-08-09T21:05:51.340Z,20.80
2022-08-09T21:10:08.600Z,20.67
2022-08-09T21:15:12.877Z,20.57
2022-08-09T21:20:25.258Z,20.39
2022-08-09T21:25:56.035Z,20.27
2022-08-09T21:31:16.704Z,20.24
2022-08-09T21:36:28.901Z,20.16
2022-08-09T21:42:04.739Z,20.22
